sensor_id;sensor_type;location;lat;lon;timestamp;pressure;altitude;pressure_sealevel;temperature;humidity
65359;BME280;52491;45.900;6.346;2023-04-22T00:00:53;93201.44;;;23.06;31.52
65359;BME280;52491;45.900;6.346;2023-04-22T00:03:19;93209.41;;;23.06;31.41
65359;BME280;52491;45.900;6.346;2023-04-22T00:05:47;93210.75;;;23.04;31.49
65359;BME280;52491;45.900;6.346;2023-04-22T00:08:12;93206.50;;;23.03;31.45
65359;BME280;52491;45.900;6.346;2023-04-22T00:10:38;93208.09;;;23.04;31.46
65359;BME280;52491;45.900;6.346;2023-04-22T00:15:29;93205.44;;;23.04;31.30
65359;BME280;52491;45.900;6.346;2023-04-22T00:17:57;93206.50;;;23.03;31.51
65359;BME280;52491;45.900;6.346;2023-04-22T00:20:22;93191.59;;;23.01;31.51
65359;BME280;52491;45.900;6.346;2023-04-22T00:22:48;93199.56;;;23.01;31.40
65359;BME280;52491;45.900;6.346;2023-04-22T00:25:15;93199.31;;;23.03;31.28
65359;BME280;52491;45.900;6.346;2023-04-22T00:30:06;93191.34;;;23.03;31.52
65359;BME280;52491;45.900;6.346;2023-04-22T00:32:32;93192.13;;;23.04;31.28
65359;BME280;52491;45.900;6.346;2023-04-22T00:34:57;93196.38;;;23.05;31.32
65359;BME280;52491;45.900;6.346;2023-04-22T00:42:15;93191.34;;;23.03;31.38
65359;BME280;52491;45.900;6.346;2023-04-22T00:44:41;93183.38;;;23.03;31.41
65359;BME280;52491;45.900;6.346;2023-04-22T00:47:10;93186.81;;;23.04;31.29
65359;BME280;52491;45.900;6.346;2023-04-22T00:49:36;93186.81;;;23.04;31.32
65359;BME280;52491;45.900;6.346;2023-04-22T00:52:02;93171.94;;;23.03;31.42
65359;BME280;52491;45.900;6.346;2023-04-22T00:54:28;93179.91;;;23.03;31.36
65359;BME280;52491;45.900;6.346;2023-04-22T00:56:57;93172.75;;;23.03;31.08
65359;BME280;52491;45.900;6.346;2023-04-22T00:59:24;93175.41;;;23.03;31.19
65359;BME280;52491;45.900;6.346;2023-04-22T01:01:51;93176.19;;;23.04;31.21
65359;BME280;52491;45.900;6.346;2023-04-22T01:04:16;93181.50;;;23.04;31.27
65359;BME280;52491;45.900;6.346;2023-04-22T01:09:08;93191.06;;;23.05;31.32
65359;BME280;52491;45.900;6.346;2023-04-22T01:11:34;93199.84;;;23.05;31.40
65359;BME280;52491;45.900;6.346;2023-04-22T01:14:01;93206.75;;;23.06;31.12
65359;BME280;52491;45.900;6.346;2023-04-22T01:16:29;93209.66;;;23.05;31.17
65359;BME280;52491;45.900;6.346;2023-04-22T01:18:55;93211.81;;;23.03;31.19
65359;BME280;52491;45.900;6.346;2023-04-22T01:21:21;93215.28;;;23.03;31.15
65359;BME280;52491;45.900;6.346;2023-04-22T01:26:15;93209.66;;;23.05;31.18
65359;BME280;52491;45.900;6.346;2023-04-22T01:28:41;93207.00;;;23.05;31.15
65359;BME280;52491;45.900;6.346;2023-04-22T01:31:06;93216.06;;;23.04;31.11
65359;BME280;52491;45.900;6.346;2023-04-22T01:33:32;93214.47;;;23.03;31.13
65359;BME280;52491;45.900;6.346;2023-04-22T01:35:58;93217.13;;;23.03;31.16
65359;BME280;52491;45.900;6.346;2023-04-22T01:38:24;93207.56;;;23.01;31.25
65359;BME280;52491;45.900;6.346;2023-04-22T01:40:50;93202.22;;;23.01;31.17
65359;BME280;52491;45.900;6.346;2023-04-22T01:43:15;93201.19;;;23.03;30.97
65359;BME280;52491;45.900;6.346;2023-04-22T01:45:41;93206.75;;;23.01;31.06
65359;BME280;52491;45.900;6.346;2023-04-22T01:48:07;93205.69;;;23.02;31.13
65359;BME280;52491;45.900;6.346;2023-04-22T01:50:32;93207.56;;;23.01;31.06
65359;BME280;52491;45.900;6.346;2023-04-22T01:52:58;93217.13;;;23.03;31.18
65359;BME280;52491;45.900;6.346;2023-04-22T01:55:24;93218.97;;;23.02;31.21
65359;BME280;52491;45.900;6.346;2023-04-22T01:57:50;93220.84;;;23.01;31.18
65359;BME280;52491;45.900;6.346;2023-04-22T02:00:16;93211.81;;;23.03;31.05
65359;BME280;52491;45.900;6.346;2023-04-22T02:02:42;93211.81;;;23.03;31.13
65359;BME280;52491;45.900;6.346;2023-04-22T02:05:08;93219.78;;;23.03;31.16
65359;BME280;52491;45.900;6.346;2023-04-22T02:07:34;93221.63;;;23.02;31.10
65359;BME280;52491;45.900;6.346;2023-04-22T02:10:01;93209.16;;;23.03;30.97
65359;BME280;52491;45.900;6.346;2023-04-22T02:12:29;93215.28;;;23.03;31.15
65359;BME280;52491;45.900;6.346;2023-04-22T02:14:55;93211.81;;;23.03;31.06
65359;BME280;52491;45.900;6.346;2023-04-22T02:19:46;93204.63;;;23.03;31.06
65359;BME280;52491;45.900;6.346;2023-04-22T02:22:12;93216.06;;;23.09;31.14
65359;BME280;52491;45.900;6.346;2023-04-22T02:24:37;93212.31;;;23.10;30.96
65359;BME280;52491;45.900;6.346;2023-04-22T02:27:03;93212.31;;;23.10;31.04
65359;BME280;52491;45.900;6.346;2023-04-22T02:29:28;93214.97;;;23.10;30.99
65359;BME280;52491;45.900;6.346;2023-04-22T02:31:57;93218.44;;;23.10;30.88
65359;BME280;52491;45.900;6.346;2023-04-22T02:34:23;93223.75;;;23.10;31.00
65359;BME280;52491;45.900;6.346;2023-04-22T02:36:48;93220.03;;;23.11;31.11
65359;BME280;52491;45.900;6.346;2023-04-22T02:39:14;93217.38;;;23.11;31.00
65359;BME280;52491;45.900;6.346;2023-04-22T02:41:39;93225.34;;;23.11;30.94
65359;BME280;52491;45.900;6.346;2023-04-22T02:44:05;93222.69;;;23.11;31.02
65359;BME280;52491;45.900;6.346;2023-04-22T02:46:30;93222.69;;;23.11;30.98
65359;BME280;52491;45.900;6.346;2023-04-22T02:48:56;93220.03;;;23.11;31.00
65359;BME280;52491;45.900;6.346;2023-04-22T02:51:22;93219.25;;;23.11;30.87
65359;BME280;52491;45.900;6.346;2023-04-22T02:53:48;93221.63;;;23.12;30.98
65359;BME280;52491;45.900;6.346;2023-04-22T02:56:13;93210.19;;;23.12;30.86
65359;BME280;52491;45.900;6.346;2023-04-22T02:58:39;93216.31;;;23.12;30.98
65359;BME280;52491;45.900;6.346;2023-04-22T03:01:04;93222.41;;;23.13;31.10
65359;BME280;52491;45.900;6.346;2023-04-22T03:03:30;93221.63;;;23.12;30.91
65359;BME280;52491;45.900;6.346;2023-04-22T03:05:56;93221.63;;;23.12;31.07
65359;BME280;52491;45.900;6.346;2023-04-22T03:08:22;93211.78;;;23.13;30.90
65359;BME280;52491;45.900;6.346;2023-04-22T03:10:47;93210.97;;;23.12;31.13
65359;BME280;52491;45.900;6.346;2023-04-22T03:13:13;93214.44;;;23.13;30.97
65359;BME280;52491;45.900;6.346;2023-04-22T03:15:41;93206.47;;;23.13;30.76
65359;BME280;52491;45.900;6.346;2023-04-22T03:18:07;93206.47;;;23.13;30.82
65359;BME280;52491;45.900;6.346;2023-04-22T03:20:34;93203.00;;;23.12;30.82
65359;BME280;52491;45.900;6.346;2023-04-22T03:23:00;93209.13;;;23.13;31.02
65359;BME280;52491;45.900;6.346;2023-04-22T03:25:26;93201.94;;;23.13;30.82
65359;BME280;52491;45.900;6.346;2023-04-22T03:27:51;93206.47;;;23.13;30.97
65359;BME280;52491;45.900;6.346;2023-04-22T03:30:17;93201.94;;;23.13;30.96
65359;BME280;52491;45.900;6.346;2023-04-22T03:32:42;93204.59;;;23.13;30.98
65359;BME280;52491;45.900;6.346;2023-04-22T03:35:08;93204.59;;;23.13;30.90
65359;BME280;52491;45.900;6.346;2023-04-22T03:37:34;93202.75;;;23.14;30.86
65359;BME280;52491;45.900;6.346;2023-04-22T03:39:59;93191.28;;;23.13;30.81
65359;BME280;52491;45.900;6.346;2023-04-22T03:42:25;93188.63;;;23.13;30.81
65359;BME280;52491;45.900;6.346;2023-04-22T03:44:51;93185.19;;;23.13;30.92
65359;BME280;52491;45.900;6.346;2023-04-22T03:47:16;93185.97;;;23.13;30.88
65359;BME280;52491;45.900;6.346;2023-04-22T03:49:42;93185.97;;;23.13;30.93
65359;BME280;52491;45.900;6.346;2023-04-22T03:52:08;93190.50;;;23.13;30.91
65359;BME280;52491;45.900;6.346;2023-04-22T03:54:33;93204.59;;;23.13;31.02
65359;BME280;52491;45.900;6.346;2023-04-22T03:56:59;93206.47;;;23.13;30.82
65359;BME280;52491;45.900;6.346;2023-04-22T03:59:25;93208.31;;;23.12;30.91
65359;BME280;52491;45.900;6.346;2023-04-22T04:01:50;93197.69;;;23.12;30.84
65359;BME280;52491;45.900;6.346;2023-04-22T04:04:17;93195.03;;;23.12;30.96
65359;BME280;52491;45.900;6.346;2023-04-22T04:06:43;93198.47;;;23.13;30.87
65359;BME280;52491;45.900;6.346;2023-04-22T04:09:09;93182.28;;;23.14;30.79
65359;BME280;52491;45.900;6.346;2023-04-22T04:11:35;93187.59;;;23.14;30.70
65359;BME280;52491;45.900;6.346;2023-04-22T04:14:00;93175.34;;;23.13;30.98
65359;BME280;52491;45.900;6.346;2023-04-22T04:16:27;93176.66;;;23.16;30.68
65359;BME280;52491;45.900;6.346;2023-04-22T04:18:53;93188.38;;;23.15;30.86
65359;BME280;52491;45.900;6.346;2023-04-22T04:21:19;93190.50;;;23.13;30.88
65359;BME280;52491;45.900;6.346;2023-04-22T04:23:45;93191.03;;;23.15;30.80
65359;BME280;52491;45.900;6.346;2023-04-22T04:26:11;93204.06;;;23.16;30.80
65359;BME280;52491;45.900;6.346;2023-04-22T04:28:36;93200.88;;;23.14;30.96
65359;BME280;52491;45.900;6.346;2023-04-22T04:31:02;93202.47;;;23.15;30.84
65359;BME280;52491;45.900;6.346;2023-04-22T04:33:28;93205.91;;;23.16;31.09
65359;BME280;52491;45.900;6.346;2023-04-22T04:35:56;93208.84;;;23.14;30.87
65359;BME280;52491;45.900;6.346;2023-04-22T04:38:22;93205.94;;;23.11;30.99
65359;BME280;52491;45.900;6.346;2023-04-22T04:40:49;93214.19;;;23.14;30.89
65359;BME280;52491;45.900;6.346;2023-04-22T04:43:15;93213.38;;;23.14;30.87
65359;BME280;52491;45.900;6.346;2023-04-22T04:45:41;93216.84;;;23.14;30.91
65359;BME280;52491;45.900;6.346;2023-04-22T04:48:14;93218.41;;;23.15;31.00
65359;BME280;52491;45.900;6.346;2023-04-22T04:50:41;93210.44;;;23.15;30.86
65359;BME280;52491;45.900;6.346;2023-04-22T04:53:07;93212.31;;;23.15;30.93
65359;BME280;52491;45.900;6.346;2023-04-22T04:55:33;93214.97;;;23.15;30.84
65359;BME280;52491;45.900;6.346;2023-04-22T04:57:58;93211.22;;;23.16;30.96
65359;BME280;52491;45.900;6.346;2023-04-22T05:00:24;93220.03;;;23.16;30.84
65359;BME280;52491;45.900;6.346;2023-04-22T05:02:49;93220.03;;;23.16;30.75
65359;BME280;52491;45.900;6.346;2023-04-22T05:05:15;93227.19;;;23.16;30.95
65359;BME280;52491;45.900;6.346;2023-04-22T05:07:41;93241.56;;;23.15;31.00
65359;BME280;52491;45.900;6.346;2023-04-22T05:10:07;93241.56;;;23.15;30.87
65359;BME280;52491;45.900;6.346;2023-04-22T05:12:33;93249.53;;;23.15;30.97
65359;BME280;52491;45.900;6.346;2023-04-22T05:14:58;93256.72;;;23.14;31.01
65359;BME280;52491;45.900;6.346;2023-04-22T05:17:24;93256.72;;;23.14;30.92
65359;BME280;52491;45.900;6.346;2023-04-22T05:19:49;93254.31;;;23.13;30.96
65359;BME280;52491;45.900;6.346;2023-04-22T05:22:15;93273.72;;;23.13;30.99
65359;BME280;52491;45.900;6.346;2023-04-22T05:24:42;93268.94;;;23.15;30.87
65359;BME280;52491;45.900;6.346;2023-04-22T05:27:07;93260.16;;;23.15;30.92
65359;BME280;52491;45.900;6.346;2023-04-22T05:29:34;93270.00;;;23.14;30.85
65359;BME280;52491;45.900;6.346;2023-04-22T05:31:59;93269.22;;;23.14;30.83
65359;BME280;52491;45.900;6.346;2023-04-22T05:34:25;93273.47;;;23.15;30.86
65359;BME280;52491;45.900;6.346;2023-04-22T05:36:51;93280.38;;;23.16;30.94
65359;BME280;52491;45.900;6.346;2023-04-22T05:39:16;93276.66;;;23.17;30.89
65359;BME280;52491;45.900;6.346;2023-04-22T05:41:42;93281.69;;;23.18;30.86
65359;BME280;52491;45.900;6.346;2023-04-22T05:44:08;93277.69;;;23.21;31.00
65359;BME280;52491;45.900;6.346;2023-04-22T05:46:33;93275.03;;;23.21;30.76
65359;BME280;52491;45.900;6.346;2023-04-22T05:48:59;93278.50;;;23.21;30.73
65359;BME280;52491;45.900;6.346;2023-04-22T05:51:24;93282.22;;;23.20;30.81
65359;BME280;52491;45.900;6.346;2023-04-22T05:53:50;93291.16;;;23.55;30.21
65359;BME280;52491;45.900;6.346;2023-04-22T05:56:16;93287.16;;;23.63;30.11
65359;BME280;52491;45.900;6.346;2023-04-22T05:58:42;93292.22;;;23.64;30.03
65359;BME280;52491;45.900;6.346;2023-04-22T06:01:08;93294.59;;;23.66;29.96
65359;BME280;52491;45.900;6.346;2023-04-22T06:03:33;93295.66;;;23.65;30.08
65359;BME280;52491;45.900;6.346;2023-04-22T06:05:59;93295.22;;;23.42;30.54
65359;BME280;52491;45.900;6.346;2023-04-22T06:08:25;93302.72;;;23.25;30.78
65359;BME280;52491;45.900;6.346;2023-04-22T06:10:51;93299.75;;;23.21;30.90
65359;BME280;52491;45.900;6.346;2023-04-22T06:13:17;93295.53;;;23.20;30.71
65359;BME280;52491;45.900;6.346;2023-04-22T06:15:42;93292.88;;;23.20;31.01
65359;BME280;52491;45.900;6.346;2023-04-22T06:18:08;93291.00;;;23.21;30.81
65359;BME280;52491;45.900;6.346;2023-04-22T06:20:34;93296.31;;;23.21;31.01
65359;BME280;52491;45.900;6.346;2023-04-22T06:23:01;93296.31;;;23.21;30.93
65359;BME280;52491;45.900;6.346;2023-04-22T06:25:26;93294.44;;;23.21;30.98
65359;BME280;52491;45.900;6.346;2023-04-22T06:27:52;93297.09;;;23.21;31.06
65359;BME280;52491;45.900;6.346;2023-04-22T06:30:17;93305.91;;;23.22;30.93
65359;BME280;52491;45.900;6.346;2023-04-22T06:32:43;93295.28;;;23.22;30.84
65359;BME280;52491;45.900;6.346;2023-04-22T06:35:09;93299.75;;;23.21;30.94
65359;BME280;52491;45.900;6.346;2023-04-22T06:37:36;93311.22;;;23.22;30.99
65359;BME280;52491;45.900;6.346;2023-04-22T06:40:03;93311.72;;;23.19;31.06
65359;BME280;52491;45.900;6.346;2023-04-22T06:42:29;93304.03;;;23.17;31.11
65359;BME280;52491;45.900;6.346;2023-04-22T06:44:56;93300.84;;;23.20;31.05
65359;BME280;52491;45.900;6.346;2023-04-22T06:47:21;93301.38;;;23.22;31.10
65359;BME280;52491;45.900;6.346;2023-04-22T06:49:48;93301.38;;;23.22;31.17
65359;BME280;52491;45.900;6.346;2023-04-22T06:52:15;93310.94;;;23.23;31.04
65359;BME280;52491;45.900;6.346;2023-04-22T06:54:41;93301.09;;;23.24;31.15
65359;BME280;52491;45.900;6.346;2023-04-22T06:57:06;93293.13;;;23.24;31.13
65359;BME280;52491;45.900;6.346;2023-04-22T06:59:32;93295.78;;;23.24;31.06
65359;BME280;52491;45.900;6.346;2023-04-22T07:01:58;93303.75;;;23.24;31.21
65359;BME280;52491;45.900;6.346;2023-04-22T07:04:23;93305.63;;;23.23;31.28
65359;BME280;52491;45.900;6.346;2023-04-22T07:06:49;93303.75;;;23.24;31.51
65359;BME280;52491;45.900;6.346;2023-04-22T07:09:14;93301.88;;;23.24;31.31
65359;BME280;52491;45.900;6.346;2023-04-22T07:11:41;93298.97;;;23.26;31.15
65359;BME280;52491;45.900;6.346;2023-04-22T07:14:07;93305.09;;;23.27;31.27
65359;BME280;52491;45.900;6.346;2023-04-22T07:16:33;93305.09;;;23.27;31.16
65359;BME280;52491;45.900;6.346;2023-04-22T07:18:58;93292.84;;;23.26;31.32
65359;BME280;52491;45.900;6.346;2023-04-22T07:21:24;93308.53;;;23.27;31.32
65359;BME280;52491;45.900;6.346;2023-04-22T07:23:50;93306.69;;;23.28;31.27
65359;BME280;52491;45.900;6.346;2023-04-22T07:26:16;93298.97;;;23.26;31.43
65359;BME280;52491;45.900;6.346;2023-04-22T07:28:43;93304.28;;;23.26;31.37
65359;BME280;52491;45.900;6.346;2023-04-22T07:31:08;93315.47;;;23.28;31.43
65359;BME280;52491;45.900;6.346;2023-04-22T07:33:34;93313.84;;;23.27;31.42
65359;BME280;52491;45.900;6.346;2023-04-22T07:36:00;93306.16;;;23.26;31.60
65359;BME280;52491;45.900;6.346;2023-04-22T07:38:25;93310.16;;;23.23;31.77
65359;BME280;52491;45.900;6.346;2023-04-22T07:40:51;93305.63;;;23.23;31.74
65359;BME280;52491;45.900;6.346;2023-04-22T07:43:16;93314.69;;;23.22;31.75
65359;BME280;52491;45.900;6.346;2023-04-22T07:45:42;93318.13;;;23.23;31.85
65359;BME280;52491;45.900;6.346;2023-04-22T07:48:08;93319.72;;;23.24;31.74
65359;BME280;52491;45.900;6.346;2023-04-22T07:50:33;93315.19;;;23.24;31.77
65359;BME280;52491;45.900;6.346;2023-04-22T07:52:59;93320.50;;;23.24;31.72
65359;BME280;52491;45.900;6.346;2023-04-22T07:55:25;93331.69;;;23.27;31.74
65359;BME280;52491;45.900;6.346;2023-04-22T07:57:50;93339.66;;;23.27;31.57
65359;BME280;52491;45.900;6.346;2023-04-22T08:00:16;93347.63;;;23.27;31.61
65359;BME280;52491;45.900;6.346;2023-04-22T08:02:41;93354.03;;;23.26;31.67
65359;BME280;52491;45.900;6.346;2023-04-22T08:05:08;93338.88;;;23.26;31.68
65359;BME280;52491;45.900;6.346;2023-04-22T08:07:35;93341.53;;;23.26;31.68
65359;BME280;52491;45.900;6.346;2023-04-22T08:10:00;93329.31;;;23.25;31.60
65359;BME280;52491;45.900;6.346;2023-04-22T08:12:26;93309.59;;;23.26;31.61
65359;BME280;52491;45.900;6.346;2023-04-22T08:14:52;93318.38;;;23.27;31.61
65359;BME280;52491;45.900;6.346;2023-04-22T08:17:18;93319.44;;;23.26;31.60
65359;BME280;52491;45.900;6.346;2023-04-22T08:19:46;93315.72;;;23.27;31.56
65359;BME280;52491;45.900;6.346;2023-04-22T08:22:13;93325.31;;;23.28;31.55
65359;BME280;52491;45.900;6.346;2023-04-22T08:24:38;93328.75;;;23.23;31.63
65359;BME280;52491;45.900;6.346;2023-04-22T08:27:04;93328.22;;;23.26;31.56
65359;BME280;52491;45.900;6.346;2023-04-22T08:29:30;93327.16;;;23.27;31.55
65359;BME280;52491;45.900;6.346;2023-04-22T08:31:55;93338.59;;;23.28;31.64
65359;BME280;52491;45.900;6.346;2023-04-22T08:34:21;93335.13;;;23.27;31.48
65359;BME280;52491;45.900;6.346;2023-04-22T08:36:46;93350.28;;;23.27;31.66
65359;BME280;52491;45.900;6.346;2023-04-22T08:39:12;93350.28;;;23.27;31.63
65359;BME280;52491;45.900;6.346;2023-04-22T08:41:38;93358.28;;;23.27;31.55
65359;BME280;52491;45.900;6.346;2023-04-22T08:44:04;93351.09;;;23.27;31.51
65359;BME280;52491;45.900;6.346;2023-04-22T08:46:30;93344.97;;;23.27;31.51
65359;BME280;52491;45.900;6.346;2023-04-22T08:48:58;93357.22;;;23.28;31.56
65359;BME280;52491;45.900;6.346;2023-04-22T08:51:27;93360.94;;;23.27;31.66
65359;BME280;52491;45.900;6.346;2023-04-22T08:53:56;93360.94;;;23.27;31.61
65359;BME280;52491;45.900;6.346;2023-04-22T08:56:23;93355.34;;;23.28;31.61
65359;BME280;52491;45.900;6.346;2023-04-22T08:58:49;93343.09;;;23.27;31.48
65359;BME280;52491;45.900;6.346;2023-04-22T09:01:16;93335.94;;;23.28;31.71
65359;BME280;52491;45.900;6.346;2023-04-22T09:03:42;93340.44;;;23.27;31.59
65359;BME280;52491;45.900;6.346;2023-04-22T09:06:09;93340.44;;;23.27;31.57
65359;BME280;52491;45.900;6.346;2023-04-22T09:08:35;93341.25;;;23.28;31.53
65359;BME280;52491;45.900;6.346;2023-04-22T09:11:02;93345.75;;;23.27;31.57
65359;BME280;52491;45.900;6.346;2023-04-22T09:13:28;93345.75;;;23.27;31.63
65359;BME280;52491;45.900;6.346;2023-04-22T09:15:53;93347.63;;;23.27;31.45
65359;BME280;52491;45.900;6.346;2023-04-22T09:18:19;93338.59;;;23.28;31.55
65359;BME280;52491;45.900;6.346;2023-04-22T09:20:48;93342.31;;;23.27;31.44
65359;BME280;52491;45.900;6.346;2023-04-22T09:23:14;93341.53;;;23.26;31.62
65359;BME280;52491;45.900;6.346;2023-04-22T09:25:41;93338.06;;;23.26;31.56
65359;BME280;52491;45.900;6.346;2023-04-22T09:28:10;93341.53;;;23.26;31.37
65359;BME280;52491;45.900;6.346;2023-04-22T09:30:36;93347.63;;;23.27;31.61
65359;BME280;52491;45.900;6.346;2023-04-22T09:33:04;93332.75;;;23.26;31.51
65359;BME280;52491;45.900;6.346;2023-04-22T09:35:30;93347.63;;;23.27;31.73
65359;BME280;52491;45.900;6.346;2023-04-22T09:37:58;93346.03;;;23.26;31.66
65359;BME280;52491;45.900;6.346;2023-04-22T09:40:24;93353.75;;;23.27;31.66
65359;BME280;52491;45.900;6.346;2023-04-22T09:42:52;93345.75;;;23.27;31.65
65359;BME280;52491;45.900;6.346;2023-04-22T09:45:35;93352.16;;;23.26;31.61
65359;BME280;52491;45.900;6.346;2023-04-22T09:48:12;93346.84;;;23.26;31.72
65359;BME280;52491;45.900;6.346;2023-04-22T09:50:42;93353.25;;;23.25;31.56
65359;BME280;52491;45.900;6.346;2023-04-22T09:53:10;93357.72;;;23.24;31.66
65359;BME280;52491;45.900;6.346;2023-04-22T09:55:42;93360.41;;;23.24;31.61
65359;BME280;52491;45.900;6.346;2023-04-22T09:58:10;93369.19;;;23.25;31.62
65359;BME280;52491;45.900;6.346;2023-04-22T10:00:52;93362.00;;;23.26;31.56
65359;BME280;52491;45.900;6.346;2023-04-22T10:03:18;93363.88;;;23.25;31.72
65359;BME280;52491;45.900;6.346;2023-04-22T10:05:44;93356.69;;;23.26;31.48
65359;BME280;52491;45.900;6.346;2023-04-22T10:08:11;93363.88;;;23.25;31.63
65359;BME280;52491;45.900;6.346;2023-04-22T10:10:38;93366.53;;;23.25;31.58
65359;BME280;52491;45.900;6.346;2023-04-22T10:13:05;93364.66;;;23.26;31.77
65359;BME280;52491;45.900;6.346;2023-04-22T10:15:43;93365.47;;;23.26;31.71
65359;BME280;52491;45.900;6.346;2023-04-22T10:18:12;93373.44;;;23.26;31.63
65359;BME280;52491;45.900;6.346;2023-04-22T10:20:40;93374.22;;;23.27;31.71
65359;BME280;52491;45.900;6.346;2023-04-22T10:23:13;93376.34;;;23.24;31.99
65359;BME280;52491;45.900;6.346;2023-04-22T10:25:40;93384.31;;;23.24;32.07
65359;BME280;52491;45.900;6.346;2023-04-22T10:28:08;93388.59;;;23.26;32.01
65359;BME280;52491;45.900;6.346;2023-04-22T10:30:36;93388.31;;;23.27;32.05
65359;BME280;52491;45.900;6.346;2023-04-22T10:38:38;93394.19;;;23.29;32.01
65359;BME280;52491;45.900;6.346;2023-04-22T10:41:05;93401.09;;;23.30;32.24
65359;BME280;52491;45.900;6.346;2023-04-22T10:49:24;93408.00;;;23.31;32.11
65359;BME280;52491;45.900;6.346;2023-04-22T10:51:55;93400.81;;;23.32;32.09
65359;BME280;52491;45.900;6.346;2023-04-22T10:57:08;93398.41;;;23.35;31.93
65359;BME280;52491;45.900;6.346;2023-04-22T11:02:10;93367.84;;;23.38;33.56
65359;BME280;52491;45.900;6.346;2023-04-22T11:04:37;93376.09;;;23.36;33.79
65359;BME280;52491;45.900;6.346;2023-04-22T11:15:10;93344.16;;;23.41;33.28
65359;BME280;52491;45.900;6.346;2023-04-22T11:17:37;93334.03;;;23.43;33.07
65359;BME280;52491;45.900;6.346;2023-04-22T11:20:05;93333.00;;;23.44;32.87
65359;BME280;52491;45.900;6.346;2023-04-22T11:22:36;93332.69;;;23.46;33.14
65359;BME280;52491;45.900;6.346;2023-04-22T11:25:03;93335.91;;;23.48;32.87
65359;BME280;52491;45.900;6.346;2023-04-22T11:27:30;93335.91;;;23.53;32.92
65359;BME280;52491;45.900;6.346;2023-04-22T11:32:26;93333.47;;;23.57;32.79
65359;BME280;52491;45.900;6.346;2023-04-22T11:34:52;93334.00;;;23.59;33.16
65359;BME280;52491;45.900;6.346;2023-04-22T11:37:18;93318.28;;;23.62;33.07
65359;BME280;52491;45.900;6.346;2023-04-22T11:39:44;93324.16;;;23.64;33.11
65359;BME280;52491;45.900;6.346;2023-04-22T11:42:11;93331.06;;;23.65;33.16
65359;BME280;52491;45.900;6.346;2023-04-22T11:44:38;93318.53;;;23.66;33.14
65359;BME280;52491;45.900;6.346;2023-04-22T11:47:04;93316.16;;;23.70;33.00
65359;BME280;52491;45.900;6.346;2023-04-22T11:49:29;93309.78;;;23.71;33.29
65359;BME280;52491;45.900;6.346;2023-04-22T11:51:57;93308.44;;;23.73;33.32
65359;BME280;52491;45.900;6.346;2023-04-22T11:54:33;93290.34;;;23.75;33.29
65359;BME280;52491;45.900;6.346;2023-04-22T11:57:02;93288.19;;;23.77;33.26
65359;BME280;52491;45.900;6.346;2023-04-22T11:59:27;93287.16;;;23.78;33.18
65359;BME280;52491;45.900;6.346;2023-04-22T12:01:53;93290.31;;;23.80;33.45
65359;BME280;52491;45.900;6.346;2023-04-22T12:04:22;93284.44;;;23.83;33.27
65359;BME280;52491;45.900;6.346;2023-04-22T12:06:50;93272.44;;;23.86;33.11
65359;BME280;52491;45.900;6.346;2023-04-22T12:09:16;93270.31;;;23.88;33.48
65359;BME280;52491;45.900;6.346;2023-04-22T12:11:44;93267.38;;;23.89;33.34
65359;BME280;52491;45.900;6.346;2023-04-22T12:14:10;93271.38;;;23.92;33.30
65359;BME280;52491;45.900;6.346;2023-04-22T12:16:40;93264.19;;;23.93;33.27
65359;BME280;52491;45.900;6.346;2023-04-22T12:19:06;93260.97;;;23.96;33.41
65359;BME280;52491;45.900;6.346;2023-04-22T12:21:32;93259.09;;;23.96;33.50
65359;BME280;52491;45.900;6.346;2023-04-22T12:24:02;93251.63;;;23.98;33.40
65359;BME280;52491;45.900;6.346;2023-04-22T12:26:31;93253.22;;;23.99;33.49
65359;BME280;52491;45.900;6.346;2023-04-22T12:28:57;93249.22;;;24.02;33.61
65359;BME280;52491;45.900;6.346;2023-04-22T12:31:24;93241.22;;;24.02;33.58
65359;BME280;52491;45.900;6.346;2023-04-22T12:33:51;93243.63;;;24.03;33.66
65359;BME280;52491;45.900;6.346;2023-04-22T12:36:18;93237.75;;;24.06;33.53
65359;BME280;52491;45.900;6.346;2023-04-22T12:38:48;93233.22;;;24.07;33.43
65359;BME280;52491;45.900;6.346;2023-04-22T12:41:14;93233.47;;;24.05;33.81
65359;BME280;52491;45.900;6.346;2023-04-22T12:43:42;93232.69;;;24.05;33.78
65359;BME280;52491;45.900;6.346;2023-04-22T12:46:08;93229.47;;;24.08;34.00
65359;BME280;52491;45.900;6.346;2023-04-22T12:48:34;93228.41;;;24.09;33.93
65359;BME280;52491;45.900;6.346;2023-04-22T12:51:02;93220.66;;;24.12;33.93
65359;BME280;52491;45.900;6.346;2023-04-22T12:53:28;93217.69;;;24.14;33.84
65359;BME280;52491;45.900;6.346;2023-04-22T12:55:54;93216.09;;;24.18;33.87
65359;BME280;52491;45.900;6.346;2023-04-22T12:58:20;93214.75;;;24.21;33.95
65359;BME280;52491;45.900;6.346;2023-04-22T13:00:45;93212.09;;;24.21;34.11
65359;BME280;52491;45.900;6.346;2023-04-22T13:03:11;93196.63;;;24.23;34.01
65359;BME280;52491;45.900;6.346;2023-04-22T13:05:37;93192.31;;;24.27;33.96
65359;BME280;52491;45.900;6.346;2023-04-22T13:08:04;93190.44;;;24.27;33.71
65359;BME280;52491;45.900;6.346;2023-04-22T13:10:30;93185.91;;;24.28;34.22
65359;BME280;52491;45.900;6.346;2023-04-22T13:12:56;93189.88;;;24.30;34.27
65359;BME280;52491;45.900;6.346;2023-04-22T13:15:30;93197.63;;;24.32;33.79
65359;BME280;52491;45.900;6.346;2023-04-22T13:17:57;93178.97;;;24.32;34.11
65359;BME280;52491;45.900;6.346;2023-04-22T13:20:23;93181.06;;;24.35;33.94
65359;BME280;52491;45.900;6.346;2023-04-22T13:22:49;93187.72;;;24.38;33.98
65359;BME280;52491;45.900;6.346;2023-04-22T13:25:14;93188.25;;;24.40;34.31
65359;BME280;52491;45.900;6.346;2023-04-22T13:27:40;93187.94;;;24.41;33.66
65359;BME280;52491;45.900;6.346;2023-04-22T13:30:07;93179.69;;;24.43;33.79
65359;BME280;52491;45.900;6.346;2023-04-22T13:32:34;93182.34;;;24.43;33.79
65359;BME280;52491;45.900;6.346;2023-04-22T13:34:59;93183.97;;;24.44;33.76
65359;BME280;52491;45.900;6.346;2023-04-22T13:37:25;93182.88;;;24.45;33.90
65359;BME280;52491;45.900;6.346;2023-04-22T13:39:51;93179.16;;;24.46;34.10